sensor_id;sensor_type;location;lat;lon;timestamp;temperature;humidity
19031;DHT22;9648;51.130;13.978;2022-09-03T00:00:06;11.80;99.90
19031;DHT22;9648;51.130;13.978;2022-09-03T00:02:39;11.80;99.90
19031;DHT22;9648;51.130;13.978;2022-09-03T00:05:15;11.80;99.90
19031;DHT22;9648;51.130;13.978;2022-09-03T00:07:50;11.90;99.90
19031;DHT22;9648;51.130;13.978;2022-09-03T00:10:24;11.90;99.90
19031;DHT22;9648;51.130;13.978;2022-09-03T00:12:57;11.90;99.90
19031;DHT22;9648;51.130;13.978;2022-09-03T00:15:29;11.90;99.90
19031;DHT22;9648;51.130;13.978;2022-09-03T00:18:03;11.80;99.90
19031;DHT22;9648;51.130;13.978;2022-09-03T00:20:37;11.90;99.90
19031;DHT22;9648;51.130;13.978;2022-09-03T00:23:06;11.90;99.90
19031;DHT22;9648;51.130;13.978;2022-09-03T00:25:39;11.90;99.90
19031;DHT22;9648;51.130;13.978;2022-09-03T00:28:12;11.90;99.90
19031;DHT22;9648;51.130;13.978;2022-09-03T00:30:41;11.90;99.90
19031;DHT22;9648;51.130;13.978;2022-09-03T00:33:16;11.90;99.90
19031;DHT22;9648;51.130;13.978;2022-09-03T00:35:46;11.90;99.90
19031;DHT22;9648;51.130;13.978;2022-09-03T00:38:14;11.90;99.90
19031;DHT22;9648;51.130;13.978;2022-09-03T00:40:54;11.80;99.90
19031;DHT22;9648;51.130;13.978;2022-09-03T00:43:29;11.80;99.90
19031;DHT22;9648;51.130;13.978;2022-09-03T00:46:07;11.80;99.90
19031;DHT22;9648;51.130;13.978;2022-09-03T00:48:50;11.80;99.90
19031;DHT22;9648;51.130;13.978;2022-09-03T00:51:23;11.70;99.90
19031;DHT22;9648;51.130;13.978;2022-09-03T00:53:59;11.70;99.90
19031;DHT22;9648;51.130;13.978;2022-09-03T00:56:35;11.60;99.90
19031;DHT22;9648;51.130;13.978;2022-09-03T00:59:15;11.60;99.90
19031;DHT22;9648;51.130;13.978;2022-09-03T01:01:58;11.50;99.90
19031;DHT22;9648;51.130;13.978;2022-09-03T01:04:38;11.50;99.90
19031;DHT22;9648;51.130;13.978;2022-09-03T01:07:14;11.50;99.90
19031;DHT22;9648;51.130;13.978;2022-09-03T01:09:49;11.50;99.90
19031;DHT22;9648;51.130;13.978;2022-09-03T01:12:28;11.50;99.90
19031;DHT22;9648;51.130;13.978;2022-09-03T01:15:05;11.60;99.90
19031;DHT22;9648;51.130;13.978;2022-09-03T01:17:45;11.60;99.90
19031;DHT22;9648;51.130;13.978;2022-09-03T01:20:39;11.60;99.90
19031;DHT22;9648;51.130;13.978;2022-09-03T01:23:47;11.70;99.90
19031;DHT22;9648;51.130;13.978;2022-09-03T01:26:29;11.70;99.90
19031;DHT22;9648;51.130;13.978;2022-09-03T01:29:11;11.70;99.90
19031;DHT22;9648;51.130;13.978;2022-09-03T01:31:48;11.70;99.90
19031;DHT22;9648;51.130;13.978;2022-09-03T01:34:23;11.70;99.90
19031;DHT22;9648;51.130;13.978;2022-09-03T01:37:00;11.70;99.90
19031;DHT22;9648;51.130;13.978;2022-09-03T01:39:42;11.80;99.90
19031;DHT22;9648;51.130;13.978;2022-09-03T01:42:18;11.80;99.90
19031;DHT22;9648;51.130;13.978;2022-09-03T01:45:08;11.80;99.90
19031;DHT22;9648;51.130;13.978;2022-09-03T01:47:48;11.80;99.90
19031;DHT22;9648;51.130;13.978;2022-09-03T01:50:29;11.80;99.90
19031;DHT22;9648;51.130;13.978;2022-09-03T01:53:07;11.80;99.90
19031;DHT22;9648;51.130;13.978;2022-09-03T01:55:45;11.90;99.90
19031;DHT22;9648;51.130;13.978;2022-09-03T01:58:20;11.90;99.90
19031;DHT22;9648;51.130;13.978;2022-09-03T02:00:56;12.00;99.90
19031;DHT22;9648;51.130;13.978;2022-09-03T02:03:32;12.00;99.90
19031;DHT22;9648;51.130;13.978;2022-09-03T02:05:59;12.00;99.90
19031;DHT22;9648;51.130;13.978;2022-09-03T02:08:26;12.00;99.90
19031;DHT22;9648;51.130;13.978;2022-09-03T02:10:55;12.00;99.90
19031;DHT22;9648;51.130;13.978;2022-09-03T02:13:29;12.00;99.90
19031;DHT22;9648;51.130;13.978;2022-09-03T02:16:01;12.00;99.90
19031;DHT22;9648;51.130;13.978;2022-09-03T02:18:30;12.00;99.90
19031;DHT22;9648;51.130;13.978;2022-09-03T02:21:00;12.10;99.90
19031;DHT22;9648;51.130;13.978;2022-09-03T02:23:27;12.00;99.90
19031;DHT22;9648;51.130;13.978;2022-09-03T02:25:57;12.00;99.90
19031;DHT22;9648;51.130;13.978;2022-09-03T02:28:25;12.00;99.90
19031;DHT22;9648;51.130;13.978;2022-09-03T02:30:52;12.00;99.90
19031;DHT22;9648;51.130;13.978;2022-09-03T02:33:20;12.00;99.90
19031;DHT22;9648;51.130;13.978;2022-09-03T02:35:46;12.00;99.90
19031;DHT22;9648;51.130;13.978;2022-09-03T02:38:15;11.90;99.90
19031;DHT22;9648;51.130;13.978;2022-09-03T02:40:42;11.90;99.90
19031;DHT22;9648;51.130;13.978;2022-09-03T02:43:13;11.80;99.90
19031;DHT22;9648;51.130;13.978;2022-09-03T02:45:46;11.80;99.90
19031;DHT22;9648;51.130;13.978;2022-09-03T02:48:15;11.80;99.90
19031;DHT22;9648;51.130;13.978;2022-09-03T02:50:44;11.70;99.90
19031;DHT22;9648;51.130;13.978;2022-09-03T02:53:11;11.60;99.90
19031;DHT22;9648;51.130;13.978;2022-09-03T02:55:38;11.50;99.90
19031;DHT22;9648;51.130;13.978;2022-09-03T02:58:05;11.50;99.90
19031;DHT22;9648;51.130;13.978;2022-09-03T03:00:33;11.40;99.90
19031;DHT22;9648;51.130;13.978;2022-09-03T03:03:01;11.30;99.90
19031;DHT22;9648;51.130;13.978;2022-09-03T03:05:34;11.30;99.90
19031;DHT22;9648;51.130;13.978;2022-09-03T03:08:07;11.20;99.90
19031;DHT22;9648;51.130;13.978;2022-09-03T03:10:34;11.10;99.90
19031;DHT22;9648;51.130;13.978;2022-09-03T03:13:02;11.10;99.90
19031;DHT22;9648;51.130;13.978;2022-09-03T03:15:29;11.10;99.90
19031;DHT22;9648;51.130;13.978;2022-09-03T03:17:55;11.00;99.90
19031;DHT22;9648;51.130;13.978;2022-09-03T03:20:23;11.00;99.90
19031;DHT22;9648;51.130;13.978;2022-09-03T03:22:50;11.00;99.90
19031;DHT22;9648;51.130;13.978;2022-09-03T03:25:18;10.90;99.90
19031;DHT22;9648;51.130;13.978;2022-09-03T03:27:45;10.90;99.90
19031;DHT22;9648;51.130;13.978;2022-09-03T03:30:12;10.80;99.90
19031;DHT22;9648;51.130;13.978;2022-09-03T03:32:39;10.80;99.90
19031;DHT22;9648;51.130;13.978;2022-09-03T03:35:06;10.80;99.90
19031;DHT22;9648;51.130;13.978;2022-09-03T03:37:33;10.70;99.90
19031;DHT22;9648;51.130;13.978;2022-09-03T03:40:01;10.70;99.90
19031;DHT22;9648;51.130;13.978;2022-09-03T03:42:31;10.60;99.90
19031;DHT22;9648;51.130;13.978;2022-09-03T03:44:58;10.60;99.90
19031;DHT22;9648;51.130;13.978;2022-09-03T03:47:27;10.60;99.90
19031;DHT22;9648;51.130;13.978;2022-09-03T03:49:55;10.60;99.90
19031;DHT22;9648;51.130;13.978;2022-09-03T03:52:22;10.60;99.90
19031;DHT22;9648;51.130;13.978;2022-09-03T03:54:49;10.60;99.90
19031;DHT22;9648;51.130;13.978;2022-09-03T03:57:16;10.60;99.90
19031;DHT22;9648;51.130;13.978;2022-09-03T03:59:45;10.60;99.90
19031;DHT22;9648;51.130;13.978;2022-09-03T04:02:12;10.60;99.90
19031;DHT22;9648;51.130;13.978;2022-09-03T04:04:39;10.60;99.90
19031;DHT22;9648;51.130;13.978;2022-09-03T04:07:07;10.50;99.90
19031;DHT22;9648;51.130;13.978;2022-09-03T04:09:34;10.50;99.90
19031;DHT22;9648;51.130;13.978;2022-09-03T04:12:02;10.50;99.90
19031;DHT22;9648;51.130;13.978;2022-09-03T04:14:29;10.50;99.90
19031;DHT22;9648;51.130;13.978;2022-09-03T04:16:58;10.50;99.90
19031;DHT22;9648;51.130;13.978;2022-09-03T04:19:24;10.50;99.90
19031;DHT22;9648;51.130;13.978;2022-09-03T04:21:52;10.50;99.90
19031;DHT22;9648;51.130;13.978;2022-09-03T04:24:19;10.50;99.90
19031;DHT22;9648;51.130;13.978;2022-09-03T04:26:46;10.50;99.90
19031;DHT22;9648;51.130;13.978;2022-09-03T04:29:14;10.50;99.90
19031;DHT22;9648;51.130;13.978;2022-09-03T04:31:42;10.50;99.90
19031;DHT22;9648;51.130;13.978;2022-09-03T04:34:30;10.50;99.90
19031;DHT22;9648;51.130;13.978;2022-09-03T04:36:57;10.50;99.90
19031;DHT22;9648;51.130;13.978;2022-09-03T04:39:24;10.50;99.90
19031;DHT22;9648;51.130;13.978;2022-09-03T04:41:51;10.50;99.90
19031;DHT22;9648;51.130;13.978;2022-09-03T04:44:17;10.50;99.90
19031;DHT22;9648;51.130;13.978;2022-09-03T04:46:44;10.50;99.90
19031;DHT22;9648;51.130;13.978;2022-09-03T04:49:12;10.50;99.90
19031;DHT22;9648;51.130;13.978;2022-09-03T04:51:40;10.50;99.90
19031;DHT22;9648;51.130;13.978;2022-09-03T04:54:09;10.50;99.90
19031;DHT22;9648;51.130;13.978;2022-09-03T04:56:37;10.50;99.90
19031;DHT22;9648;51.130;13.978;2022-09-03T04:59:06;10.50;99.90
19031;DHT22;9648;51.130;13.978;2022-09-03T05:01:35;10.50;99.90
19031;DHT22;9648;51.130;13.978;2022-09-03T05:04:02;10.50;99.90
19031;DHT22;9648;51.130;13.978;2022-09-03T05:06:30;10.50;99.90
19031;DHT22;9648;51.130;13.978;2022-09-03T05:08:58;10.60;99.90
19031;DHT22;9648;51.130;13.978;2022-09-03T05:11:27;10.50;99.90
19031;DHT22;9648;51.130;13.978;2022-09-03T05:13:56;10.50;99.90
19031;DHT22;9648;51.130;13.978;2022-09-03T05:16:24;10.50;99.90
19031;DHT22;9648;51.130;13.978;2022-09-03T05:18:51;10.50;99.90
19031;DHT22;9648;51.130;13.978;2022-09-03T05:21:19;10.60;99.90
19031;DHT22;9648;51.130;13.978;2022-09-03T05:23:47;10.60;99.90
19031;DHT22;9648;51.130;13.978;2022-09-03T05:26:17;10.60;99.90
19031;DHT22;9648;51.130;13.978;2022-09-03T05:28:45;10.60;99.90
19031;DHT22;9648;51.130;13.978;2022-09-03T05:31:13;10.60;99.90
19031;DHT22;9648;51.130;13.978;2022-09-03T05:33:42;10.70;99.90
19031;DHT22;9648;51.130;13.978;2022-09-03T05:36:11;10.70;99.90
19031;DHT22;9648;51.130;13.978;2022-09-03T05:38:38;10.70;99.90
19031;DHT22;9648;51.130;13.978;2022-09-03T05:41:07;10.80;99.90
19031;DHT22;9648;51.130;13.978;2022-09-03T05:43:36;10.90;99.90
19031;DHT22;9648;51.130;13.978;2022-09-03T05:46:04;10.90;99.90
19031;DHT22;9648;51.130;13.978;2022-09-03T05:48:32;11.00;99.90
19031;DHT22;9648;51.130;13.978;2022-09-03T05:51:01;11.10;99.90
19031;DHT22;9648;51.130;13.978;2022-09-03T05:53:28;11.20;99.90
19031;DHT22;9648;51.130;13.978;2022-09-03T05:55:56;11.20;99.90
19031;DHT22;9648;51.130;13.978;2022-09-03T05:58:23;11.30;99.90
19031;DHT22;9648;51.130;13.978;2022-09-03T06:00:52;11.40;99.90
19031;DHT22;9648;51.130;13.978;2022-09-03T06:03:19;11.50;99.90
19031;DHT22;9648;51.130;13.978;2022-09-03T06:05:49;11.60;99.90
19031;DHT22;9648;51.130;13.978;2022-09-03T06:08:16;11.70;99.90
19031;DHT22;9648;51.130;13.978;2022-09-03T06:10:44;11.80;99.90
19031;DHT22;9648;51.130;13.978;2022-09-03T06:13:10;11.80;99.90
19031;DHT22;9648;51.130;13.978;2022-09-03T06:15:37;11.90;99.90
19031;DHT22;9648;51.130;13.978;2022-09-03T06:18:05;12.00;99.90
19031;DHT22;9648;51.130;13.978;2022-09-03T06:20:32;12.10;99.90
19031;DHT22;9648;51.130;13.978;2022-09-03T06:22:59;12.20;99.90
19031;DHT22;9648;51.130;13.978;2022-09-03T06:25:26;12.30;99.90
19031;DHT22;9648;51.130;13.978;2022-09-03T06:27:53;12.40;99.90
19031;DHT22;9648;51.130;13.978;2022-09-03T06:30:19;12.40;99.90
19031;DHT22;9648;51.130;13.978;2022-09-03T06:32:48;12.50;99.90
19031;DHT22;9648;51.130;13.978;2022-09-03T06:35:18;12.60;99.90
19031;DHT22;9648;51.130;13.978;2022-09-03T06:37:44;12.70;99.90
19031;DHT22;9648;51.130;13.978;2022-09-03T06:40:11;12.70;99.90
19031;DHT22;9648;51.130;13.978;2022-09-03T06:42:38;12.80;99.90
19031;DHT22;9648;51.130;13.978;2022-09-03T06:45:06;12.90;99.90
19031;DHT22;9648;51.130;13.978;2022-09-03T06:47:34;13.00;99.90
19031;DHT22;9648;51.130;13.978;2022-09-03T06:50:01;13.00;99.90
19031;DHT22;9648;51.130;13.978;2022-09-03T06:52:29;13.10;99.90
19031;DHT22;9648;51.130;13.978;2022-09-03T06:54:55;13.10;99.90
19031;DHT22;9648;51.130;13.978;2022-09-03T06:57:22;13.30;99.90
19031;DHT22;9648;51.130;13.978;2022-09-03T06:59:49;13.30;99.90
19031;DHT22;9648;51.130;13.978;2022-09-03T07:02:16;13.40;99.90
19031;DHT22;9648;51.130;13.978;2022-09-03T07:04:43;13.50;99.90
19031;DHT22;9648;51.130;13.978;2022-09-03T07:07:10;13.70;99.90
19031;DHT22;9648;51.130;13.978;2022-09-03T07:09:39;13.70;99.90
19031;DHT22;9648;51.130;13.978;2022-09-03T07:12:07;13.80;99.90
19031;DHT22;9648;51.130;13.978;2022-09-03T07:14:35;13.90;99.90
19031;DHT22;9648;51.130;13.978;2022-09-03T07:17:02;14.00;99.90
19031;DHT22;9648;51.130;13.978;2022-09-03T07:19:29;14.10;99.90
19031;DHT22;9648;51.130;13.978;2022-09-03T07:21:55;14.20;99.90
19031;DHT22;9648;51.130;13.978;2022-09-03T07:24:22;14.20;99.90
19031;DHT22;9648;51.130;13.978;2022-09-03T07:26:50;14.30;99.90
19031;DHT22;9648;51.130;13.978;2022-09-03T07:29:17;14.40;99.90
19031;DHT22;9648;51.130;13.978;2022-09-03T07:31:45;14.50;99.90
19031;DHT22;9648;51.130;13.978;2022-09-03T07:34:13;14.50;99.90
19031;DHT22;9648;51.130;13.978;2022-09-03T07:36:42;14.60;99.90
19031;DHT22;9648;51.130;13.978;2022-09-03T07:39:12;14.60;99.90
19031;DHT22;9648;51.130;13.978;2022-09-03T07:41:40;14.70;99.90
19031;DHT22;9648;51.130;13.978;2022-09-03T07:44:09;14.80;99.90
19031;DHT22;9648;51.130;13.978;2022-09-03T07:46:37;14.90;99.90
19031;DHT22;9648;51.130;13.978;2022-09-03T07:49:05;15.00;99.90
19031;DHT22;9648;51.130;13.978;2022-09-03T07:51:33;14.90;99.90
19031;DHT22;9648;51.130;13.978;2022-09-03T07:54:02;15.00;99.90
19031;DHT22;9648;51.130;13.978;2022-09-03T07:56:30;15.00;99.90
19031;DHT22;9648;51.130;13.978;2022-09-03T07:58:57;15.20;99.90
19031;DHT22;9648;51.130;13.978;2022-09-03T08:01:27;15.30;99.90
19031;DHT22;9648;51.130;13.978;2022-09-03T08:03:55;15.50;99.90
19031;DHT22;9648;51.130;13.978;2022-09-03T08:06:25;15.50;99.90
19031;DHT22;9648;51.130;13.978;2022-09-03T08:08:54;15.60;99.90
19031;DHT22;9648;51.130;13.978;2022-09-03T08:11:23;15.70;99.90
19031;DHT22;9648;51.130;13.978;2022-09-03T08:13:53;15.70;99.90
19031;DHT22;9648;51.130;13.978;2022-09-03T08:16:22;15.80;99.90
19031;DHT22;9648;51.130;13.978;2022-09-03T08:18:50;15.90;99.90
19031;DHT22;9648;51.130;13.978;2022-09-03T08:21:18;16.00;99.90
19031;DHT22;9648;51.130;13.978;2022-09-03T08:23:47;16.10;99.90
19031;DHT22;9648;51.130;13.978;2022-09-03T08:26:15;16.10;99.90
19031;DHT22;9648;51.130;13.978;2022-09-03T08:28:43;16.20;99.90
19031;DHT22;9648;51.130;13.978;2022-09-03T08:31:12;16.30;99.90
19031;DHT22;9648;51.130;13.978;2022-09-03T08:33:41;16.40;99.90
19031;DHT22;9648;51.130;13.978;2022-09-03T08:36:12;16.50;99.90
19031;DHT22;9648;51.130;13.978;2022-09-03T08:38:41;16.60;99.90
19031;DHT22;9648;51.130;13.978;2022-09-03T08:41:11;16.70;99.90
19031;DHT22;9648;51.130;13.978;2022-09-03T08:43:58;16.80;99.90
19031;DHT22;9648;51.130;13.978;2022-09-03T08:46:36;16.80;99.90
19031;DHT22;9648;51.130;13.978;2022-09-03T08:49:08;16.80;99.90
19031;DHT22;9648;51.130;13.978;2022-09-03T08:51:39;16.90;99.90
19031;DHT22;9648;51.130;13.978;2022-09-03T08:54:08;17.00;99.90
19031;DHT22;9648;51.130;13.978;2022-09-03T08:56:38;17.10;99.90
19031;DHT22;9648;51.130;13.978;2022-09-03T08:59:06;17.20;99.90
19031;DHT22;9648;51.130;13.978;2022-09-03T09:01:42;17.20;99.90
19031;DHT22;9648;51.130;13.978;2022-09-03T09:04:20;17.30;99.90
19031;DHT22;9648;51.130;13.978;2022-09-03T09:06:54;17.40;99.90
19031;DHT22;9648;51.130;13.978;2022-09-03T09:09:29;17.40;99.90
19031;DHT22;9648;51.130;13.978;2022-09-03T09:12:09;17.50;99.90
19031;DHT22;9648;51.130;13.978;2022-09-03T09:14:45;17.50;99.90
19031;DHT22;9648;51.130;13.978;2022-09-03T09:17:29;17.60;99.90
19031;DHT22;9648;51.130;13.978;2022-09-03T09:20:05;17.70;99.90
19031;DHT22;9648;51.130;13.978;2022-09-03T09:22:38;17.80;99.90
19031;DHT22;9648;51.130;13.978;2022-09-03T09:25:09;17.90;99.90
19031;DHT22;9648;51.130;13.978;2022-09-03T09:27:45;17.90;99.90
19031;DHT22;9648;51.130;13.978;2022-09-03T09:30:16;18.00;99.90
19031;DHT22;9648;51.130;13.978;2022-09-03T09:32:43;18.00;99.90
19031;DHT22;9648;51.130;13.978;2022-09-03T09:35:13;18.10;99.90
19031;DHT22;9648;51.130;13.978;2022-09-03T09:37:52;18.20;99.50
19031;DHT22;9648;51.130;13.978;2022-09-03T09:40:25;18.20;99.30
19031;DHT22;9648;51.130;13.978;2022-09-03T09:43:05;18.20;99.60
19031;DHT22;9648;51.130;13.978;2022-09-03T09:45:32;18.30;97.70
19031;DHT22;9648;51.130;13.978;2022-09-03T09:48:01;18.30;98.00
19031;DHT22;9648;51.130;13.978;2022-09-03T09:50:28;18.40;98.40
19031;DHT22;9648;51.130;13.978;2022-09-03T09:53:05;18.40;97.50
19031;DHT22;9648;51.130;13.978;2022-09-03T09:55:48;18.50;98.10
19031;DHT22;9648;51.130;13.978;2022-09-03T09:58:18;18.50;97.90
19031;DHT22;9648;51.130;13.978;2022-09-03T10:00:58;18.60;97.10
19031;DHT22;9648;51.130;13.978;2022-09-03T10:03:26;18.60;97.00
19031;DHT22;9648;51.130;13.978;2022-09-03T10:06:01;18.70;96.20
19031;DHT22;9648;51.130;13.978;2022-09-03T10:08:52;18.70;95.80
19031;DHT22;9648;51.130;13.978;2022-09-03T10:11:20;18.80;96.90
19031;DHT22;9648;51.130;13.978;2022-09-03T10:13:53;19.00;96.20
19031;DHT22;9648;51.130;13.978;2022-09-03T10:16:22;19.10;95.30
19031;DHT22;9648;51.130;13.978;2022-09-03T10:18:58;19.00;94.10
19031;DHT22;9648;51.130;13.978;2022-09-03T10:21:30;18.90;95.10
19031;DHT22;9648;51.130;13.978;2022-09-03T10:24:09;19.10;95.70
19031;DHT22;9648;51.130;13.978;2022-09-03T10:26:40;19.30;96.00
19031;DHT22;9648;51.130;13.978;2022-09-03T10:29:20;19.50;95.70
19031;DHT22;9648;51.130;13.978;2022-09-03T10:31:58;19.60;93.30
19031;DHT22;9648;51.130;13.978;2022-09-03T10:34:33;19.60;93.70
19031;DHT22;9648;51.130;13.978;2022-09-03T10:37:13;19.60;92.40
19031;DHT22;9648;51.130;13.978;2022-09-03T10:39:55;19.50;92.70
19031;DHT22;9648;51.130;13.978;2022-09-03T10:42:36;19.50;90.70
19031;DHT22;9648;51.130;13.978;2022-09-03T10:45:15;19.60;90.60
19031;DHT22;9648;51.130;13.978;2022-09-03T10:48:10;19.70;86.60
19031;DHT22;9648;51.130;13.978;2022-09-03T10:50:46;19.70;86.70
19031;DHT22;9648;51.130;13.978;2022-09-03T10:53:24;19.80;90.30
19031;DHT22;9648;51.130;13.978;2022-09-03T10:56:01;19.90;89.20
19031;DHT22;9648;51.130;13.978;2022-09-03T10:58:44;19.90;83.30
19031;DHT22;9648;51.130;13.978;2022-09-03T11:01:19;20.20;84.80
19031;DHT22;9648;51.130;13.978;2022-09-03T11:03:55;20.20;81.70
19031;DHT22;9648;51.130;13.978;2022-09-03T11:06:28;20.30;86.50
19031;DHT22;9648;51.130;13.978;2022-09-03T11:08:58;20.50;87.20
19031;DHT22;9648;51.130;13.978;2022-09-03T11:11:31;20.80;87.50
19031;DHT22;9648;51.130;13.978;2022-09-03T11:14:04;20.90;81.70
19031;DHT22;9648;51.130;13.978;2022-09-03T11:16:37;20.80;78.40
19031;DHT22;9648;51.130;13.978;2022-09-03T11:19:08;20.70;79.10
19031;DHT22;9648;51.130;13.978;2022-09-03T11:21:37;20.60;76.60
19031;DHT22;9648;51.130;13.978;2022-09-03T11:24:10;20.80;78.10
19031;DHT22;9648;51.130;13.978;2022-09-03T11:26:40;20.70;76.10
19031;DHT22;9648;51.130;13.978;2022-09-03T11:29:12;20.70;76.20
19031;DHT22;9648;51.130;13.978;2022-09-03T11:31:48;20.80;79.50
19031;DHT22;9648;51.130;13.978;2022-09-03T11:34:28;21.10;79.90
19031;DHT22;9648;51.130;13.978;2022-09-03T11:37:06;21.20;77.30
19031;DHT22;9648;51.130;13.978;2022-09-03T11:39:35;21.30;72.80
19031;DHT22;9648;51.130;13.978;2022-09-03T11:42:10;21.50;76.30
19031;DHT22;9648;51.130;13.978;2022-09-03T11:44:40;21.70;77.10
19031;DHT22;9648;51.130;13.978;2022-09-03T11:47:15;21.60;74.50
19031;DHT22;9648;51.130;13.978;2022-09-03T11:49:47;21.60;75.80
19031;DHT22;9648;51.130;13.978;2022-09-03T11:52:25;21.60;74.50
19031;DHT22;9648;51.130;13.978;2022-09-03T11:54:53;21.50;74.40
19031;DHT22;9648;51.130;13.978;2022-09-03T11:57:26;21.60;74.80
19031;DHT22;9648;51.130;13.978;2022-09-03T11:59:54;21.60;72.40
19031;DHT22;9648;51.130;13.978;2022-09-03T12:02:35;21.70;74.00
19031;DHT22;9648;51.130;13.978;2022-09-03T12:05:16;21.90;74.00
19031;DHT22;9648;51.130;13.978;2022-09-03T12:08:09;22.20;75.80
19031;DHT22;9648;51.130;13.978;2022-09-03T12:10:48;22.60;72.80
19031;DHT22;9648;51.130;13.978;2022-09-03T12:13:25;22.70;73.40
19031;DHT22;9648;51.130;13.978;2022-09-03T12:16:17;22.90;70.90
19031;DHT22;9648;51.130;13.978;2022-09-03T12:18:47;23.20;69.80
19031;DHT22;9648;51.130;13.978;2022-09-03T12:21:17;23.30;67.70
19031;DHT22;9648;51.130;13.978;2022-09-03T12:23:47;23.10;64.00
19031;DHT22;9648;51.130;13.978;2022-09-03T12:26:16;22.70;61.90
19031;DHT22;9648;51.130;13.978;2022-09-03T12:28:47;22.40;65.90
19031;DHT22;9648;51.130;13.978;2022-09-03T12:31:16;22.20;66.50
19031;DHT22;9648;51.130;13.978;2022-09-03T12:33:48;22.20;67.10
19031;DHT22;9648;51.130;13.978;2022-09-03T12:36:16;22.10;64.30
19031;DHT22;9648;51.130;13.978;2022-09-03T12:38:43;22.10;66.10
19031;DHT22;9648;51.130;13.978;2022-09-03T12:41:23;22.30;68.10
19031;DHT22;9648;51.130;13.978;2022-09-03T12:43:54;22.40;68.10
19031;DHT22;9648;51.130;13.978;2022-09-03T12:46:23;22.30;68.30
19031;DHT22;9648;51.130;13.978;2022-09-03T12:48:55;22.30;68.60
19031;DHT22;9648;51.130;13.978;2022-09-03T12:51:22;22.20;68.20
19031;DHT22;9648;51.130;13.978;2022-09-03T12:53:50;22.00;66.40
19031;DHT22;9648;51.130;13.978;2022-09-03T12:56:19;21.80;67.00
19031;DHT22;9648;51.130;13.978;2022-09-03T12:58:50;21.70;66.10
19031;DHT22;9648;51.130;13.978;2022-09-03T13:01:22;21.60;65.20
19031;DHT22;9648;51.130;13.978;2022-09-03T13:03:53;21.40;67.20
19031;DHT22;9648;51.130;13.978;2022-09-03T13:06:24;21.20;66.20
19031;DHT22;9648;51.130;13.978;2022-09-03T13:08:54;21.10;68.30
19031;DHT22;9648;51.130;13.978;2022-09-03T13:11:23;21.10;68.50
19031;DHT22;9648;51.130;13.978;2022-09-03T13:13:53;21.10;69.70
19031;DHT22;9648;51.130;13.978;2022-09-03T13:16:45;21.40;72.00
19031;DHT22;9648;51.130;13.978;2022-09-03T13:19:19;21.50;69.90
19031;DHT22;9648;51.130;13.978;2022-09-03T13:21:51;21.60;70.80
19031;DHT22;9648;51.130;13.978;2022-09-03T13:24:46;21.60;68.60
19031;DHT22;9648;51.130;13.978;2022-09-03T13:27:21;21.60;67.50
19031;DHT22;9648;51.130;13.978;2022-09-03T13:30:00;21.60;67.50
19031;DHT22;9648;51.130;13.978;2022-09-03T13:32:35;21.50;66.30
19031;DHT22;9648;51.130;13.978;2022-09-03T13:35:07;21.40;66.60
19031;DHT22;9648;51.130;13.978;2022-09-03T13:37:38;21.40;65.70
19031;DHT22;9648;51.130;13.978;2022-09-03T13:40:13;21.50;66.00
19031;DHT22;9648;51.130;13.978;2022-09-03T13:42:45;21.50;64.50
19031;DHT22;9648;51.130;13.978;2022-09-03T13:45:22;21.50;64.00
19031;DHT22;9648;51.130;13.978;2022-09-03T13:47:57;21.30;64.10
19031;DHT22;9648;51.130;13.978;2022-09-03T13:50:46;21.30;63.90
19031;DHT22;9648;51.130;13.978;2022-09-03T13:53:19;21.30;65.10
19031;DHT22;9648;51.130;13.978;2022-09-03T13:55:53;21.50;66.00
19031;DHT22;9648;51.130;13.978;2022-09-03T13:58:25;21.70;65.00
19031;DHT22;9648;51.130;13.978;2022-09-03T14:01:05;22.10;65.20
19031;DHT22;9648;51.130;13.978;2022-09-03T14:03:43;22.20;65.40
19031;DHT22;9648;51.130;13.978;2022-09-03T14:06:19;22.20;62.60
19031;DHT22;9648;51.130;13.978;2022-09-03T14:09:03;22.40;64.60
19031;DHT22;9648;51.130;13.978;2022-09-03T14:11:40;22.40;64.40
19031;DHT22;9648;51.130;13.978;2022-09-03T14:14:17;22.60;65.50
19031;DHT22;9648;51.130;13.978;2022-09-03T14:16:54;22.80;65.90
19031;DHT22;9648;51.130;13.978;2022-09-03T14:19:32;22.90;64.80
19031;DHT22;9648;51.130;13.978;2022-09-03T14:22:07;23.20;63.10
19031;DHT22;9648;51.130;13.978;2022-09-03T14:24:44;23.40;61.30
19031;DHT22;9648;51.130;13.978;2022-09-03T14:27:12;23.50;61.10
19031;DHT22;9648;51.130;13.978;2022-09-03T14:29:50;23.60;57.90
19031;DHT22;9648;51.130;13.978;2022-09-03T14:32:28;23.60;58.40
19031;DHT22;9648;51.130;13.978;2022-09-03T14:35:17;23.80;56.70
19031;DHT22;9648;51.130;13.978;2022-09-03T14:41:03;23.80;57.50
19031;DHT22;9648;51.130;13.978;2022-09-03T14:44:00;23.70;57.00
19031;DHT22;9648;51.130;13.978;2022-09-03T14:46:46;23.50;58.50
19031;DHT22;9648;51.130;13.978;2022-09-03T14:49:25;23.40;60.20
19031;DHT22;9648;51.130;13.978;2022-09-03T14:52:11;23.20;55.80
19031;DHT22;9648;51.130;13.978;2022-09-03T14:58:03;22.60;56.90
19031;DHT22;9648;51.130;13.978;2022-09-03T15:00:40;22.40;57.90
19031;DHT22;9648;51.130;13.978;2022-09-03T15:03:45;22.30;58.50
19031;DHT22;9648;51.130;13.978;2022-09-03T15:06:27;22.00;59.40
19031;DHT22;9648;51.130;13.978;2022-09-03T15:09:14;21.80;58.70
19031;DHT22;9648;51.130;13.978;2022-09-03T15:11:48;21.70;61.90
19031;DHT22;9648;51.130;13.978;2022-09-03T15:14:23;21.60;61.80
19031;DHT22;9648;51.130;13.978;2022-09-03T15:16:58;21.50;62.90
19031;DHT22;9648;51.130;13.978;2022-09-03T15:19:47;21.40;63.80
19031;DHT22;9648;51.130;13.978;2022-09-03T15:22:31;21.30;65.00
19031;DHT22;9648;51.130;13.978;2022-09-03T15:25:09;21.20;65.70
19031;DHT22;9648;51.130;13.978;2022-09-03T15:27:48;21.10;66.60
19031;DHT22;9648;51.130;13.978;2022-09-03T15:30:20;21.00;67.10
19031;DHT22;9648;51.130;13.978;2022-09-03T15:32:59;20.90;68.10
19031;DHT22;9648;51.130;13.978;2022-09-03T15:38:38;20.70;71.60
19031;DHT22;9648;51.130;13.978;2022-09-03T15:41:09;20.40;68.70
19031;DHT22;9648;51.130;13.978;2022-09-03T15:43:48;20.20;69.50
19031;DHT22;9648;51.130;13.978;2022-09-03T15:46:38;20.00;69.60
19031;DHT22;9648;51.130;13.978;2022-09-03T15:49:22;19.90;72.00
19031;DHT22;9648;51.130;13.978;2022-09-03T15:51:59;19.80;72.20
19031;DHT22;9648;51.130;13.978;2022-09-03T15:54:41;19.80;71.50
19031;DHT22;9648;51.130;13.978;2022-09-03T15:57:15;19.90;70.00
19031;DHT22;9648;51.130;13.978;2022-09-03T15:59:51;20.10;71.30
19031;DHT22;9648;51.130;13.978;2022-09-03T16:02:26;20.40;70.30
19031;DHT22;9648;51.130;13.978;2022-09-03T16:05:04;20.80;70.00
19031;DHT22;9648;51.130;13.978;2022-09-03T16:07:44;21.00;67.50
19031;DHT22;9648;51.130;13.978;2022-09-03T16:10:15;21.20;64.90
19031;DHT22;9648;51.130;13.978;2022-09-03T16:12:50;21.30;65.50